»·PEaware :: QFA210 YPMQ-YSSY

QFA210 :: YPMQ-YSSY

FLIGHT INFORMATION

Flight Status: Arrived
Operator:
Qantas Airways
More flights by this operator :: More flights under this callsign
Pilot: Luke W. (11553)
Aircraft: BOEING 737-800
(B738)
More flights by this aircraft type
Origin: YPMQ Port Macquarie
Australia
Destination: YSSY Kingsford Smith Intl
Australia
More flights between these airports :: More routes between these airports
Route: DCT JOKER J70 CORKY H12 BOREE6
File this flight plan on PilotEdge
Remarks:
Altitude:
(Current/Filed)
24,000ft
Speed:
(Current/Filed)
430kts
Departed: 02-Jul-17 12:38 AM
Arrived: 02-Jul-17 01:30 AM
Distance/Time
Traveled:
0nm/0:52
Distance/Time
To Go:
Arrived

Flight Plot

Page will automatically refresh every two minutes.

Flight plan parsing failed; only flown route is shown


Map Options




Map Legend


Flown Route
Filed Route
Departure Airport
Arrival Airport
Navaid (VOR, NDB)
Fix

Horizontal Profiles

Position Reports

Time Latitude Longitude Heading Altitude Ground
Speed
02-Jul-17 00:10 -31.430925 152.867749 241 19ft 0kts
02-Jul-17 00:11 -31.430925 152.867749 241 19ft 0kts
02-Jul-17 00:12 -31.430925 152.867749 241 19ft 0kts
02-Jul-17 00:13 -31.430925 152.867749 241 19ft 0kts
02-Jul-17 00:14 -31.430925 152.867749 241 19ft 0kts
02-Jul-17 00:15 -31.430925 152.867749 241 19ft 0kts
02-Jul-17 00:16 -31.430925 152.867749 241 19ft 0kts
02-Jul-17 00:17 -31.430925 152.867749 241 19ft 0kts
02-Jul-17 00:18 -31.430925 152.867749 241 19ft 0kts
02-Jul-17 00:19 -31.430925 152.867749 241 19ft 0kts
02-Jul-17 00:20 -31.430925 152.867749 241 19ft 0kts
02-Jul-17 00:21 -31.430925 152.867749 241 19ft 0kts
02-Jul-17 00:22 -31.430925 152.867749 241 19ft 0kts
02-Jul-17 00:23 -31.430925 152.867749 241 19ft 0kts
02-Jul-17 00:24 -31.430925 152.867749 241 19ft 0kts
02-Jul-17 00:25 -31.430925 152.867749 241 19ft 0kts
02-Jul-17 00:26 -31.430925 152.867749 241 19ft 0kts
02-Jul-17 00:27 -31.430925 152.867749 241 19ft 0kts
02-Jul-17 00:28 -31.430925 152.867749 241 19ft 0kts
02-Jul-17 00:29 -31.430925 152.867749 241 19ft 0kts
02-Jul-17 00:30 -31.430925 152.867749 241 19ft 0kts
02-Jul-17 00:31 -31.430925 152.867749 241 19ft 0kts
02-Jul-17 00:32 -31.430925 152.867749 241 19ft 0kts
02-Jul-17 00:33 -31.430929 152.867671 282 19ft 1kts
02-Jul-17 00:34 -31.430437 152.866755 242 18ft 0kts
02-Jul-17 00:35 -31.430437 152.866755 242 18ft 0kts
02-Jul-17 00:36 -31.430437 152.866755 242 18ft 0kts
02-Jul-17 00:37 -31.431701 152.864715 210 17ft 16kts
02-Jul-17 00:38 -31.436565 152.861461 210 14ft 19kts
02-Jul-17 00:39 -31.441861 152.857942 203 14ft 24kts
02-Jul-17 00:40 -31.442207 152.857687 30 15ft 0kts
02-Jul-17 00:41 -31.418603 152.873213 29 786ft 187kts
02-Jul-17 00:42 -31.371712 152.890047 330 3901ft 180kts
02-Jul-17 00:43 -31.370959 152.834759 239 5385ft 242kts
02-Jul-17 00:44 -31.405976 152.759125 240 8539ft 274kts
02-Jul-17 00:45 -31.431160 152.672167 262 11224ft 315kts
02-Jul-17 00:46 -31.434892 152.573311 268 14824ft 315kts
02-Jul-17 00:47 -31.433471 152.473322 269 18025ft 319kts
02-Jul-17 00:48 -31.431054 152.372806 269 20901ft 323kts
02-Jul-17 00:49 -31.428546 152.277791 269 23360ft 326kts
02-Jul-17 00:50 -31.425667 152.171942 270 24012ft 353kts
02-Jul-17 00:51 -31.422337 152.054807 270 23999ft 371kts
02-Jul-17 00:52 -31.418850 151.936347 270 23999ft 369kts
02-Jul-17 00:53 -31.456594 151.833628 225 23999ft 380kts
02-Jul-17 00:54 -31.535119 151.761251 222 23996ft 383kts
02-Jul-17 00:55 -31.617605 151.688968 221 23995ft 383kts
02-Jul-17 00:56 -31.699909 151.617115 221 23994ft 383kts
02-Jul-17 00:57 -31.780642 151.546532 222 23992ft 383kts
02-Jul-17 00:58 -31.860139 151.476948 222 23991ft 383kts
02-Jul-17 00:59 -31.942435 151.404785 222 23990ft 383kts
02-Jul-17 01:00 -32.022435 151.334515 223 24004ft 382kts
02-Jul-17 01:01 -32.101258 151.265100 222 24001ft 383kts
02-Jul-17 01:02 -32.169398 151.204724 222 24004ft 383kts
02-Jul-17 01:03 -32.252816 151.130912 223 24002ft 387kts
02-Jul-17 01:04 -32.336442 151.056735 223 24000ft 392kts
02-Jul-17 01:05 -32.422265 150.980429 224 23999ft 397kts
02-Jul-17 01:06 -32.519329 150.920600 192 23998ft 431kts
02-Jul-17 01:07 -32.638475 150.937123 179 23999ft 445kts
02-Jul-17 01:08 -32.756048 150.958115 178 22144ft 418kts
02-Jul-17 01:09 -32.864261 150.977243 177 19183ft 393kts
02-Jul-17 01:10 -32.969557 150.995960 175 16309ft 395kts
02-Jul-17 01:11 -33.073488 151.014552 174 13401ft 384kts
02-Jul-17 01:12 -33.153936 151.028891 172 10982ft 357kts
02-Jul-17 01:13 -33.262257 151.048783 171 8726ft 337kts
02-Jul-17 01:14 -33.353226 151.066165 171 8717ft 341kts
02-Jul-17 01:15 -33.434192 151.081718 172 8716ft 341kts
02-Jul-17 01:16 -33.526778 151.099591 172 8259ft 340kts
02-Jul-17 01:17 -33.602688 151.114158 171 7770ft 339kts
02-Jul-17 01:18 -33.693027 151.131867 171 7186ft 336kts
02-Jul-17 01:19 -33.782742 151.149310 171 6712ft 334kts
02-Jul-17 01:20 -33.867452 151.138562 195 6341ft 331kts
02-Jul-17 01:21 -33.954751 151.113497 194 6015ft 329kts
02-Jul-17 01:22 -34.040829 151.088698 194 5321ft 315kts
02-Jul-17 01:23 -34.123759 151.089453 168 4162ft 310kts
02-Jul-17 01:24 -34.201726 151.111778 145 2978ft 271kts
02-Jul-17 01:25 -34.204368 151.175448 57 3007ft 186kts
02-Jul-17 01:26 -34.177706 151.220335 48 3014ft 160kts
02-Jul-17 01:27 -34.136285 151.223369 350 2778ft 157kts
02-Jul-17 01:28 -34.093604 151.213453 349 2710ft 157kts
02-Jul-17 01:29 -34.052598 151.202991 348 1673ft 150kts
02-Jul-17 01:30 -34.013194 151.193043 349 876ft 140kts
02-Jul-17 01:31 -33.976973 151.183967 348 314ft 134kts
02-Jul-17 01:32 -33.950928 151.177207 346 17ft 42kts
02-Jul-17 01:33 -33.943960 151.177304 17 17ft 16kts
02-Jul-17 01:34 -33.939950 151.176355 348 17ft 14kts
02-Jul-17 01:35 -33.936565 151.176011 72 17ft 11kts
02-Jul-17 01:36 -33.935693 151.178355 60 17ft 5kts
02-Jul-17 01:37 -33.935744 151.178904 100 17ft 0kts
02-Jul-17 01:38 -33.935744 151.178904 100 17ft 0kts
02-Jul-17 01:39 -33.954245 151.178054 348 17ft 51kts
02-Jul-17 01:40 -33.955082 151.178270 348 17ft 64kts
02-Jul-17 01:41 -33.952668 151.177652 347 17ft 47kts
02-Jul-17 01:42 -31.430317 152.867036 247 18ft 8kts
02-Jul-17 01:43 -31.442522 152.857493 316 15ft 2kts
02-Jul-17 01:44 -31.438381 152.860262 29 14ft 104kts

Navigation Log

Ident Type
Flight plan parsing failed, navigation log unavailable